createdAt,value
2022-07-26T00:00:43.539Z,19.80
2022-07-26T00:03:10.488Z,19.70
2022-07-26T00:05:38.582Z,19.80
2022-07-26T00:08:13.454Z,19.80
2022-07-26T00:10:46.884Z,19.80
2022-07-26T00:13:13.717Z,19.80
2022-07-26T00:15:40.520Z,19.90
2022-07-26T00:18:08.175Z,19.80
2022-07-26T00:20:40.272Z,19.80
2022-07-26T00:23:08.528Z,19.90
2022-07-26T00:25:35.463Z,19.90
2022-07-26T00:28:02.531Z,19.90
2022-07-26T00:30:29.646Z,19.90
2022-07-26T00:32:56.531Z,19.90
2022-07-26T00:35:23.655Z,19.90
2022-07-26T00:37:50.626Z,19.90
2022-07-26T00:40:17.639Z,19.90
2022-07-26T00:42:44.519Z,19.80
2022-07-26T00:45:12.888Z,19.80
2022-07-26T00:47:39.932Z,19.80
2022-07-26T00:50:09.490Z,19.80
2022-07-26T00:52:36.395Z,19.70
2022-07-26T00:55:04.967Z,19.70
2022-07-26T00:57:31.984Z,19.70
2022-07-26T01:00:01.194Z,19.70
2022-07-26T01:02:28.048Z,19.70
2022-07-26T01:04:54.932Z,19.70
2022-07-26T01:07:22.673Z,19.70
2022-07-26T01:09:49.708Z,19.70
2022-07-26T01:12:16.595Z,19.60
2022-07-26T01:14:44.478Z,19.60
2022-07-26T01:17:14.845Z,19.70
2022-07-26T01:19:42.437Z,19.60
2022-07-26T01:22:14.022Z,19.60
2022-07-26T01:24:41.160Z,19.60
2022-07-26T01:27:08.453Z,19.60
2022-07-26T01:29:35.314Z,19.60
2022-07-26T01:32:04.904Z,19.60
2022-07-26T01:34:32.123Z,19.60
2022-07-26T01:36:59.001Z,19.50
2022-07-26T01:39:25.832Z,19.50
2022-07-26T01:41:53.493Z,19.50
2022-07-26T01:44:20.358Z,19.50
2022-07-26T01:46:47.176Z,19.40
2022-07-26T01:49:14.139Z,19.40
2022-07-26T01:51:41.188Z,19.40
2022-07-26T01:54:08.422Z,19.40
2022-07-26T01:56:35.511Z,19.30
2022-07-26T01:59:03.016Z,19.30
2022-07-26T02:01:38.156Z,19.20
2022-07-26T02:04:06.028Z,19.20
2022-07-26T02:06:33.122Z,19.10
2022-07-26T02:09:01.891Z,19.10
2022-07-26T02:11:29.050Z,19.10
2022-07-26T02:13:55.907Z,19.10
2022-07-26T02:16:22.805Z,19.10
2022-07-26T02:18:49.671Z,19.00
2022-07-26T02:21:16.573Z,19.00
2022-07-26T02:23:43.632Z,18.90
2022-07-26T02:26:10.624Z,18.90
2022-07-26T02:28:37.397Z,18.80
2022-07-26T02:31:04.852Z,18.80
2022-07-26T02:33:31.872Z,18.80
2022-07-26T02:35:58.662Z,18.70
2022-07-26T02:38:25.485Z,18.70
2022-07-26T02:40:52.972Z,18.70
2022-07-26T02:43:19.943Z,18.70
2022-07-26T02:46:01.549Z,18.60
2022-07-26T02:48:30.329Z,18.60
2022-07-26T02:50:57.348Z,18.60
2022-07-26T02:53:24.290Z,18.50
2022-07-26T02:55:51.250Z,18.50
2022-07-26T02:58:19.906Z,18.50
2022-07-26T03:00:47.009Z,18.40
2022-07-26T03:03:14.185Z,18.40
2022-07-26T03:05:41.383Z,18.40
2022-07-26T03:08:08.453Z,18.40
2022-07-26T03:10:35.309Z,18.30
2022-07-26T03:13:02.311Z,18.30
2022-07-26T03:15:29.401Z,18.30
2022-07-26T03:17:56.379Z,18.20
2022-07-26T03:20:23.325Z,18.20
2022-07-26T03:22:50.243Z,18.20
2022-07-26T03:25:17.293Z,18.10
2022-07-26T03:27:44.133Z,18.10
2022-07-26T03:30:11.843Z,18.10
2022-07-26T03:32:38.768Z,18.10
2022-07-26T03:35:06.461Z,18.00
2022-07-26T03:37:45.494Z,18.00
2022-07-26T03:40:15.295Z,18.00
2022-07-26T03:42:42.298Z,18.00
2022-07-26T03:45:09.734Z,17.90
2022-07-26T03:47:37.264Z,17.90
2022-07-26T03:50:06.228Z,17.90
2022-07-26T03:52:33.258Z,17.90
2022-07-26T03:55:00.146Z,17.90
2022-07-26T03:57:28.271Z,17.90
2022-07-26T03:59:55.806Z,18.00
2022-07-26T04:02:22.727Z,17.90
2022-07-26T04:04:49.626Z,18.00
2022-07-26T04:07:16.454Z,18.00
2022-07-26T04:09:43.315Z,18.00
2022-07-26T04:12:10.177Z,18.10
2022-07-26T04:14:37.078Z,18.10
2022-07-26T04:17:04.051Z,18.10
2022-07-26T04:19:30.958Z,18.10
2022-07-26T04:21:57.735Z,18.20
2022-07-26T04:24:25.327Z,18.10
2022-07-26T04:26:52.858Z,18.10
2022-07-26T04:29:19.674Z,18.20
2022-07-26T04:31:46.857Z,18.20
2022-07-26T04:34:13.712Z,18.20
2022-07-26T04:36:40.536Z,18.10
2022-07-26T04:39:07.344Z,18.10
2022-07-26T04:41:34.199Z,18.00
2022-07-26T04:44:01.022Z,17.90
2022-07-26T04:46:27.995Z,17.90
2022-07-26T04:48:54.887Z,17.90
2022-07-26T04:51:21.904Z,17.90
2022-07-26T04:53:48.954Z,17.90
2022-07-26T04:56:15.797Z,17.90
2022-07-26T04:58:42.678Z,17.90
2022-07-26T05:01:10.779Z,17.90
2022-07-26T05:03:38.485Z,17.90
2022-07-26T05:06:05.525Z,17.90
2022-07-26T05:08:32.390Z,17.90
2022-07-26T05:10:59.222Z,17.90
2022-07-26T05:13:30.352Z,17.90
2022-07-26T05:15:59.408Z,17.90
2022-07-26T05:18:26.847Z,17.90
2022-07-26T05:20:53.643Z,17.90
2022-07-26T05:23:20.497Z,17.90
2022-07-26T05:25:47.654Z,17.90
2022-07-26T05:28:14.795Z,17.90
2022-07-26T05:30:41.754Z,17.90
2022-07-26T05:33:08.626Z,17.90
2022-07-26T05:35:35.439Z,17.90
2022-07-26T05:38:02.287Z,17.90
2022-07-26T05:40:29.186Z,17.90
2022-07-26T05:42:55.996Z,18.00
2022-07-26T05:45:22.919Z,17.90
2022-07-26T05:47:51.071Z,17.90
2022-07-26T05:50:18.624Z,18.00
2022-07-26T05:52:46.234Z,18.00
2022-07-26T05:55:13.515Z,18.10
2022-07-26T05:57:41.965Z,18.10
2022-07-26T06:00:12.376Z,18.10
2022-07-26T06:02:39.775Z,18.10
2022-07-26T06:05:07.259Z,18.20
2022-07-26T06:07:34.079Z,18.20
2022-07-26T06:10:00.974Z,18.30
2022-07-26T06:12:27.861Z,18.30
2022-07-26T06:14:54.737Z,18.30
2022-07-26T06:17:21.665Z,18.30
2022-07-26T06:19:48.587Z,18.30
2022-07-26T06:22:15.571Z,18.20
2022-07-26T06:24:42.405Z,18.20
2022-07-26T06:27:09.274Z,18.10
2022-07-26T06:29:36.097Z,18.00
2022-07-26T06:32:03.625Z,18.00
2022-07-26T06:34:30.590Z,18.00
2022-07-26T06:36:57.594Z,18.00
2022-07-26T06:39:24.482Z,18.00
2022-07-26T06:41:51.452Z,18.10
2022-07-26T06:44:22.807Z,18.10
2022-07-26T06:46:49.878Z,18.20
2022-07-26T06:49:21.864Z,18.20
2022-07-26T06:51:49.318Z,18.20
2022-07-26T06:54:16.176Z,18.20
2022-07-26T06:56:43.048Z,18.20
2022-07-26T06:59:10.243Z,18.30
2022-07-26T07:01:57.957Z,18.30
2022-07-26T07:04:24.017Z,18.30
2022-07-26T07:06:51.009Z,18.40
2022-07-26T07:09:17.867Z,18.40
2022-07-26T07:11:46.147Z,18.50
2022-07-26T07:14:16.292Z,18.60
2022-07-26T07:16:43.139Z,18.60
2022-07-26T07:19:10.057Z,18.70
2022-07-26T07:21:36.885Z,18.70
2022-07-26T07:24:03.994Z,18.80
2022-07-26T07:26:30.869Z,18.80
2022-07-26T07:28:58.400Z,18.80
2022-07-26T07:31:30.481Z,18.90
2022-07-26T07:34:13.739Z,19.00
2022-07-26T07:36:41.406Z,19.20
2022-07-26T07:39:15.371Z,19.60
2022-07-26T07:41:43.179Z,19.60
2022-07-26T07:44:10.549Z,20.10
2022-07-26T07:46:37.747Z,20.60
2022-07-26T07:49:04.841Z,20.60
2022-07-26T07:51:32.428Z,20.80
2022-07-26T07:54:02.435Z,21.00
2022-07-26T07:56:32.085Z,21.30
2022-07-26T07:58:58.940Z,21.10
2022-07-26T08:01:36.402Z,21.10
2022-07-26T08:04:08.378Z,20.90
2022-07-26T08:06:36.040Z,20.80
2022-07-26T08:09:03.822Z,20.80
2022-07-26T08:11:33.988Z,21.00
2022-07-26T08:14:01.733Z,21.40
2022-07-26T08:16:29.145Z,21.80
2022-07-26T08:19:08.713Z,21.80
2022-07-26T08:21:35.900Z,22.00
2022-07-26T08:24:02.940Z,21.80
2022-07-26T08:26:30.086Z,21.70
2022-07-26T08:28:59.520Z,21.70
2022-07-26T08:31:27.837Z,21.90
2022-07-26T08:33:55.710Z,21.80
2022-07-26T08:36:22.692Z,21.70
2022-07-26T08:38:49.577Z,21.50
2022-07-26T08:41:20.625Z,21.60
2022-07-26T08:43:51.775Z,21.50
2022-07-26T08:46:25.383Z,22.10
2022-07-26T08:48:54.686Z,22.10
2022-07-26T08:51:23.924Z,22.00
2022-07-26T08:54:02.343Z,22.50
2022-07-26T08:56:32.647Z,22.40
2022-07-26T08:58:59.627Z,22.10
2022-07-26T09:01:27.634Z,21.90
2022-07-26T09:03:54.560Z,21.60
2022-07-26T09:06:25.524Z,21.50
2022-07-26T09:09:11.494Z,21.40
2022-07-26T09:11:38.617Z,21.20
2022-07-26T09:14:06.532Z,21.20
2022-07-26T09:16:38.778Z,21.10
2022-07-26T09:19:23.573Z,21.10
2022-07-26T09:21:52.032Z,21.60
2022-07-26T09:24:31.971Z,21.90
2022-07-26T09:27:03.946Z,21.80
2022-07-26T09:29:30.937Z,21.70
2022-07-26T09:32:18.419Z,21.50
2022-07-26T09:34:52.657Z,21.30
2022-07-26T09:37:33.769Z,21.10
2022-07-26T09:40:02.262Z,20.90
2022-07-26T09:42:29.802Z,20.80
2022-07-26T09:44:58.745Z,20.70
2022-07-26T09:47:39.520Z,20.60
2022-07-26T09:50:24.731Z,20.60
2022-07-26T09:53:07.391Z,20.60
2022-07-26T09:55:57.520Z,20.60
2022-07-26T09:58:24.904Z,20.70
2022-07-26T10:00:51.890Z,20.80
2022-07-26T10:03:18.779Z,20.90
2022-07-26T10:05:45.651Z,21.10
2022-07-26T10:08:13.188Z,21.20
2022-07-26T10:10:47.699Z,21.40
2022-07-26T10:13:14.884Z,21.50
2022-07-26T10:15:46.899Z,21.60
2022-07-26T10:18:35.761Z,21.60
2022-07-26T10:21:31.864Z,21.50
2022-07-26T10:24:03.621Z,21.40
2022-07-26T10:26:33.222Z,21.30
2022-07-26T10:29:26.044Z,21.20
2022-07-26T10:31:56.238Z,21.20
2022-07-26T10:34:37.609Z,21.10
2022-07-26T10:37:07.097Z,20.90
2022-07-26T10:39:35.435Z,20.60
2022-07-26T10:42:10.498Z,20.50
2022-07-26T10:44:41.532Z,20.50
2022-07-26T10:47:08.367Z,20.60
2022-07-26T10:49:39.483Z,20.70
2022-07-26T10:52:18.454Z,20.80
2022-07-26T10:54:57.274Z,21.00
2022-07-26T10:57:29.379Z,21.10
2022-07-26T11:00:00.260Z,21.30
2022-07-26T11:02:32.274Z,21.30
2022-07-26T11:05:13.187Z,21.40
2022-07-26T11:07:51.173Z,21.50
2022-07-26T11:10:23.780Z,21.40
2022-07-26T11:13:07.045Z,21.50
2022-07-26T11:15:35.415Z,21.40
2022-07-26T11:18:15.000Z,21.30
2022-07-26T11:20:43.470Z,21.20
2022-07-26T11:23:29.695Z,21.20
2022-07-26T11:26:05.402Z,21.20
2022-07-26T11:28:47.598Z,21.20
2022-07-26T11:31:15.539Z,21.70
2022-07-26T11:33:46.733Z,22.40
2022-07-26T11:36:13.676Z,22.80
2022-07-26T11:39:00.988Z,22.70
2022-07-26T11:41:34.772Z,22.90
2022-07-26T11:44:03.760Z,23.10
2022-07-26T11:46:47.488Z,23.10
2022-07-26T11:50:00.121Z,23.10
2022-07-26T11:52:29.525Z,22.90
2022-07-26T11:54:56.368Z,22.80
2022-07-26T11:57:31.831Z,22.70
2022-07-26T11:59:59.790Z,22.60
2022-07-26T12:02:28.160Z,22.60
2022-07-26T12:05:16.942Z,22.60
2022-07-26T12:08:02.706Z,22.50
2022-07-26T12:10:30.292Z,22.50
2022-07-26T12:13:08.461Z,22.60
2022-07-26T12:15:53.501Z,22.70
2022-07-26T12:18:28.586Z,22.80
2022-07-26T12:21:06.139Z,22.70
2022-07-26T12:23:45.718Z,23.00
2022-07-26T12:26:27.721Z,23.20
2022-07-26T12:28:56.452Z,23.10
2022-07-26T12:31:27.211Z,22.90
2022-07-26T12:33:54.262Z,22.80
2022-07-26T12:36:27.424Z,22.70
2022-07-26T12:38:56.242Z,22.70
2022-07-26T12:41:33.117Z,22.60
2022-07-26T12:44:00.063Z,22.50
2022-07-26T12:46:27.204Z,22.40
2022-07-26T12:48:59.671Z,22.40
2022-07-26T12:51:27.471Z,22.30
2022-07-26T12:53:54.295Z,22.20
2022-07-26T12:56:21.175Z,22.30
2022-07-26T12:58:48.024Z,22.30
2022-07-26T13:01:14.982Z,22.30
2022-07-26T13:03:41.888Z,22.20
2022-07-26T13:06:08.787Z,22.40
2022-07-26T13:08:35.656Z,22.60
2022-07-26T13:11:02.583Z,22.50
2022-07-26T13:13:30.128Z,22.30
2022-07-26T13:15:57.027Z,22.30
2022-07-26T13:18:23.910Z,22.30
2022-07-26T13:20:51.049Z,22.30
2022-07-26T13:23:21.436Z,22.20
2022-07-26T13:25:49.147Z,22.20
2022-07-26T13:28:17.378Z,22.20
2022-07-26T13:30:45.115Z,22.20
2022-07-26T13:33:12.442Z,22.20
2022-07-26T13:35:41.256Z,22.10
2022-07-26T13:38:09.056Z,22.00
2022-07-26T13:40:36.245Z,22.00
2022-07-26T13:43:03.418Z,22.00
2022-07-26T13:45:30.249Z,22.10
2022-07-26T13:48:00.171Z,22.20
2022-07-26T13:50:30.159Z,22.30
2022-07-26T13:52:57.347Z,22.40
2022-07-26T13:55:25.598Z,22.50
2022-07-26T13:57:57.235Z,22.40
2022-07-26T14:00:29.330Z,22.40
2022-07-26T14:02:58.443Z,22.50
2022-07-26T14:05:26.465Z,22.40
2022-07-26T14:07:53.985Z,22.40
2022-07-26T14:10:22.220Z,22.40
2022-07-26T14:12:49.868Z,22.30
2022-07-26T14:15:22.209Z,22.30
2022-07-26T14:17:51.542Z,22.40
2022-07-26T14:20:18.568Z,22.30
2022-07-26T14:22:45.674Z,22.30
2022-07-26T14:25:12.662Z,22.10
2022-07-26T14:27:39.753Z,22.00
2022-07-26T14:30:07.242Z,22.00
2022-07-26T14:32:34.349Z,22.10
2022-07-26T14:35:01.240Z,22.10
2022-07-26T14:37:43.538Z,22.10
2022-07-26T14:40:16.770Z,22.20
2022-07-26T14:42:44.473Z,22.20
2022-07-26T14:45:11.958Z,22.20
2022-07-26T14:47:39.087Z,22.20
2022-07-26T14:50:07.928Z,22.20
2022-07-26T14:52:48.345Z,22.20
2022-07-26T14:55:20.374Z,22.10
2022-07-26T14:57:51.457Z,22.20
2022-07-26T15:00:18.852Z,22.10
2022-07-26T15:02:47.973Z,22.10
2022-07-26T15:05:15.212Z,22.00
2022-07-26T15:07:43.168Z,21.90
2022-07-26T15:10:12.606Z,21.90
2022-07-26T15:12:40.072Z,21.90
2022-07-26T15:15:08.600Z,21.90
2022-07-26T15:17:36.465Z,22.00
2022-07-26T15:20:05.027Z,22.00
2022-07-26T15:22:31.902Z,21.90
2022-07-26T15:24:58.740Z,21.80
2022-07-26T15:27:25.625Z,21.80
2022-07-26T15:29:52.548Z,21.80
2022-07-26T15:32:21.163Z,21.60
2022-07-26T15:34:48.433Z,21.60
2022-07-26T15:37:15.462Z,21.60
2022-07-26T15:39:42.663Z,21.70
2022-07-26T15:42:09.894Z,21.70
2022-07-26T15:44:38.691Z,21.70
2022-07-26T15:47:05.729Z,21.60
2022-07-26T15:49:33.488Z,21.60
2022-07-26T15:52:01.067Z,21.40
2022-07-26T15:54:27.952Z,21.40
2022-07-26T15:56:55.056Z,21.40
2022-07-26T15:59:22.030Z,21.30
2022-07-26T16:01:49.209Z,21.20
2022-07-26T16:04:16.339Z,21.20
2022-07-26T16:06:43.233Z,21.10
2022-07-26T16:09:18.964Z,21.00
2022-07-26T16:11:47.202Z,20.90
2022-07-26T16:14:14.872Z,20.80
2022-07-26T16:16:41.913Z,20.70
2022-07-26T16:19:09.132Z,20.80
2022-07-26T16:21:37.107Z,20.80
2022-07-26T16:24:06.993Z,20.80
2022-07-26T16:26:35.101Z,20.70
2022-07-26T16:29:02.317Z,20.70
2022-07-26T16:31:29.427Z,20.70
2022-07-26T16:33:56.427Z,20.60
2022-07-26T16:36:23.878Z,20.60
2022-07-26T16:38:50.742Z,20.60
2022-07-26T16:41:17.839Z,20.60
2022-07-26T16:43:44.741Z,20.70
2022-07-26T16:46:11.715Z,20.70
2022-07-26T16:48:38.694Z,20.70
2022-07-26T16:51:05.709Z,20.60
2022-07-26T16:53:32.551Z,20.60
2022-07-26T16:55:59.626Z,20.50
2022-07-26T16:58:26.503Z,20.50
2022-07-26T17:00:53.546Z,20.40
2022-07-26T17:03:20.483Z,20.40
2022-07-26T17:05:47.597Z,20.30
2022-07-26T17:08:14.564Z,20.30
2022-07-26T17:10:41.683Z,20.30
2022-07-26T17:13:09.096Z,20.20
2022-07-26T17:15:36.261Z,20.20
2022-07-26T17:18:03.631Z,20.10
2022-07-26T17:20:30.502Z,20.00
2022-07-26T17:22:57.479Z,20.10
2022-07-26T17:25:24.351Z,20.00
2022-07-26T17:27:51.341Z,20.00
2022-07-26T17:30:18.215Z,19.90
2022-07-26T17:32:45.081Z,19.90
2022-07-26T17:35:12.121Z,19.90
2022-07-26T17:37:40.015Z,19.80
2022-07-26T17:40:08.606Z,19.80
2022-07-26T17:42:37.050Z,19.70
2022-07-26T17:45:05.612Z,19.70
2022-07-26T17:47:32.530Z,19.60
2022-07-26T17:50:35.886Z,19.60
2022-07-26T17:52:52.098Z,19.60
2022-07-26T17:55:19.745Z,19.50
2022-07-26T17:57:47.892Z,19.50
2022-07-26T18:00:17.138Z,19.50
2022-07-26T18:02:44.108Z,19.40
2022-07-26T18:05:11.455Z,19.40
2022-07-26T18:07:38.948Z,19.40
2022-07-26T18:10:06.426Z,19.40
2022-07-26T18:12:33.483Z,19.30
2022-07-26T18:15:00.284Z,19.30
2022-07-26T18:17:27.179Z,19.30
2022-07-26T18:19:54.098Z,19.30
2022-07-26T18:22:20.952Z,19.30
2022-07-26T18:24:47.769Z,19.20
2022-07-26T18:27:15.748Z,19.20
2022-07-26T18:29:42.694Z,19.10
2022-07-26T18:32:09.556Z,19.00
2022-07-26T18:34:36.445Z,19.00
2022-07-26T18:37:03.304Z,18.80
2022-07-26T18:39:33.123Z,18.80
2022-07-26T18:42:00.274Z,18.80
2022-07-26T18:44:27.201Z,18.70
2022-07-26T18:46:56.103Z,18.60
2022-07-26T18:49:30.748Z,18.60
2022-07-26T18:52:05.875Z,18.50
2022-07-26T18:54:35.663Z,18.50
2022-07-26T18:57:02.571Z,18.40
2022-07-26T18:59:29.752Z,18.40
2022-07-26T19:01:58.775Z,18.40
2022-07-26T19:04:25.809Z,18.30
2022-07-26T19:06:52.736Z,18.30
2022-07-26T19:09:19.705Z,18.30
2022-07-26T19:11:46.717Z,18.30
2022-07-26T19:14:13.673Z,18.30
2022-07-26T19:16:40.633Z,18.30
2022-07-26T19:19:07.462Z,18.20
2022-07-26T19:21:34.943Z,18.20
2022-07-26T19:24:01.883Z,18.20
2022-07-26T19:26:29.721Z,18.10
2022-07-26T19:28:57.087Z,18.10
2022-07-26T19:31:23.979Z,18.00
2022-07-26T19:33:50.975Z,18.00
2022-07-26T19:36:26.435Z,18.00
2022-07-26T19:38:55.873Z,17.90
2022-07-26T19:41:22.972Z,17.90
2022-07-26T19:43:49.807Z,17.80
2022-07-26T19:46:16.776Z,17.90
2022-07-26T19:48:43.762Z,17.80
2022-07-26T19:51:10.667Z,17.80
2022-07-26T19:53:37.604Z,17.70
2022-07-26T19:56:04.772Z,17.80
2022-07-26T19:58:31.702Z,17.70
2022-07-26T20:00:58.678Z,17.70
2022-07-26T20:03:25.529Z,17.70
2022-07-26T20:05:53.669Z,17.70
2022-07-26T20:08:20.891Z,17.60
2022-07-26T20:10:47.772Z,17.60
2022-07-26T20:13:14.864Z,17.60
2022-07-26T20:15:41.944Z,17.60
2022-07-26T20:18:10.211Z,17.50
2022-07-26T20:20:37.176Z,17.50
2022-07-26T20:23:05.977Z,17.50
2022-07-26T20:25:35.615Z,17.40
2022-07-26T20:28:02.697Z,17.40
2022-07-26T20:30:29.745Z,17.40
2022-07-26T20:32:56.682Z,17.40
2022-07-26T20:35:23.582Z,17.40
2022-07-26T20:37:50.448Z,17.30
2022-07-26T20:40:17.881Z,17.30
2022-07-26T20:42:45.536Z,17.30
2022-07-26T20:45:14.998Z,17.20
2022-07-26T20:47:43.054Z,17.20
2022-07-26T20:50:11.521Z,17.20
2022-07-26T20:52:38.811Z,17.10
2022-07-26T20:55:06.284Z,17.10
2022-07-26T20:57:33.259Z,17.10
2022-07-26T21:00:00.403Z,17.10
2022-07-26T21:02:27.513Z,17.00
2022-07-26T21:04:54.382Z,17.00
2022-07-26T21:07:21.318Z,17.00
2022-07-26T21:09:48.204Z,17.00
2022-07-26T21:12:15.257Z,17.00
2022-07-26T21:14:42.036Z,16.90
2022-07-26T21:17:11.888Z,16.90
2022-07-26T21:19:39.975Z,16.90
2022-07-26T21:22:07.214Z,16.90
2022-07-26T21:24:37.403Z,16.90
2022-07-26T21:27:05.682Z,16.80
2022-07-26T21:29:39.359Z,16.80
2022-07-26T21:32:06.526Z,16.80
2022-07-26T21:34:34.346Z,16.80
2022-07-26T21:37:01.988Z,16.80
2022-07-26T21:39:28.973Z,16.70
2022-07-26T21:41:56.154Z,16.70
2022-07-26T21:44:23.196Z,16.60
2022-07-26T21:46:52.726Z,16.60
2022-07-26T21:49:19.648Z,16.50
2022-07-26T21:51:46.627Z,16.50
2022-07-26T21:54:13.808Z,16.40
2022-07-26T21:56:41.379Z,16.40
2022-07-26T21:59:08.485Z,16.30
2022-07-26T22:01:35.669Z,16.30
2022-07-26T22:04:02.560Z,16.30
2022-07-26T22:06:29.381Z,16.20
2022-07-26T22:08:56.249Z,16.20
2022-07-26T22:11:23.189Z,16.10
2022-07-26T22:13:50.160Z,16.10
2022-07-26T22:16:17.459Z,16.00
2022-07-26T22:18:44.300Z,15.90
2022-07-26T22:21:11.312Z,15.90
2022-07-26T22:23:38.135Z,15.90
2022-07-26T22:26:05.763Z,15.80
2022-07-26T22:28:34.005Z,15.80
2022-07-26T22:31:01.635Z,15.80
2022-07-26T22:33:28.512Z,15.70
2022-07-26T22:35:55.433Z,15.70
2022-07-26T22:38:22.497Z,15.60
2022-07-26T22:40:49.368Z,15.60
2022-07-26T22:43:16.306Z,15.60
2022-07-26T22:45:43.382Z,15.60
2022-07-26T22:48:10.467Z,15.50
2022-07-26T22:50:37.384Z,15.50
2022-07-26T22:53:04.456Z,15.50
2022-07-26T22:55:31.419Z,15.50
2022-07-26T22:57:58.585Z,15.50
2022-07-26T23:00:25.730Z,15.50
2022-07-26T23:02:52.655Z,15.50
2022-07-26T23:05:19.639Z,15.50
2022-07-26T23:07:47.825Z,15.50
2022-07-26T23:10:16.102Z,15.50
2022-07-26T23:12:42.938Z,15.50
2022-07-26T23:15:10.714Z,15.50
2022-07-26T23:17:37.977Z,15.50
2022-07-26T23:20:06.503Z,15.50
2022-07-26T23:22:33.909Z,15.50
2022-07-26T23:25:00.698Z,15.50
2022-07-26T23:27:27.703Z,15.50
2022-07-26T23:29:54.540Z,15.50
2022-07-26T23:32:21.335Z,15.40
2022-07-26T23:34:48.162Z,15.40
2022-07-26T23:37:15.105Z,15.40
2022-07-26T23:39:41.954Z,15.40
2022-07-26T23:42:08.858Z,15.30
2022-07-26T23:44:35.716Z,15.30
2022-07-26T23:47:02.636Z,15.30
2022-07-26T23:49:29.734Z,15.20
2022-07-26T23:51:56.648Z,15.20
2022-07-26T23:54:23.462Z,15.20
2022-07-26T23:56:50.466Z,15.10
2022-07-26T23:59:17.551Z,15.10
